createdAt,value
2019-04-22T00:00:43.281Z,16.17
2019-04-22T00:03:39.027Z,17.80
2019-04-22T00:06:44.405Z,16.47
2019-04-22T00:09:44.458Z,16.60
2019-04-22T00:12:37.444Z,16.70
2019-04-22T00:15:15.534Z,16.30
2019-04-22T00:18:16.476Z,16.20
2019-04-22T00:21:04.819Z,16.53
2019-04-22T00:23:51.948Z,16.50
2019-04-22T00:26:44.506Z,16.23
2019-04-22T00:29:50.248Z,17.03
2019-04-22T00:32:39.627Z,17.07
2019-04-22T00:35:33.179Z,16.67
2019-04-22T00:38:23.423Z,15.00
2019-04-22T00:41:14.629Z,14.40
2019-04-22T00:44:02.947Z,15.27
2019-04-22T00:46:53.722Z,15.57
2019-04-22T00:52:34.094Z,14.50
2019-04-22T00:55:29.219Z,15.33
2019-04-22T00:58:16.707Z,15.00
2019-04-22T01:01:12.901Z,14.83
2019-04-22T01:04:04.284Z,14.20
2019-04-22T01:06:44.533Z,14.10
2019-04-22T01:09:38.906Z,15.00
2019-04-22T01:12:28.659Z,14.20
2019-04-22T01:15:25.510Z,14.63
2019-04-22T01:18:07.810Z,14.40
2019-04-22T01:23:49.100Z,14.60
2019-04-22T01:26:37.325Z,14.10
2019-04-22T01:29:20.167Z,14.73
2019-04-22T01:31:58.221Z,14.33
2019-04-22T01:35:03.418Z,14.40
2019-04-22T01:37:54.624Z,14.33
2019-04-22T01:40:59.941Z,14.70
2019-04-22T01:43:53.720Z,15.27
2019-04-22T01:46:38.106Z,14.50
2019-04-22T01:49:30.156Z,13.90
2019-04-22T01:52:17.116Z,14.40
2019-04-22T01:55:12.274Z,15.33
2019-04-22T01:57:35.030Z,14.40
2019-04-22T02:00:32.493Z,14.40
2019-04-22T02:03:25.595Z,14.40
2019-04-22T02:06:17.305Z,15.07
2019-04-22T02:09:10.959Z,14.07
2019-04-22T02:11:55.832Z,13.50
2019-04-22T02:14:44.298Z,15.67
2019-04-22T02:17:36.913Z,14.60
2019-04-22T02:20:26.789Z,14.60
2019-04-22T02:29:04.678Z,14.80
2019-04-22T02:32:04.902Z,14.43
2019-04-22T02:35:02.083Z,13.80
2019-04-22T02:37:35.916Z,13.23
2019-04-22T02:40:35.415Z,14.20
2019-04-22T02:43:40.432Z,14.20
2019-04-22T02:46:23.051Z,14.50
2019-04-22T02:52:05.574Z,13.53
2019-04-22T02:57:39.579Z,13.80
2019-04-22T03:00:27.368Z,15.03
2019-04-22T03:03:20.785Z,14.33
2019-04-22T03:06:16.524Z,13.33
2019-04-22T03:11:52.974Z,13.33
2019-04-22T03:14:29.899Z,14.30
2019-04-22T03:17:22.042Z,13.90
2019-04-22T03:20:11.132Z,14.50
2019-04-22T03:23:17.668Z,14.03
2019-04-22T03:28:51.176Z,14.73
2019-04-22T03:43:35.808Z,13.50
2019-04-22T03:46:14.646Z,13.30
2019-04-22T03:49:13.283Z,13.37
2019-04-22T03:54:46.395Z,13.70
2019-04-22T04:00:08.407Z,13.50
2019-04-22T04:03:01.963Z,13.70
2019-04-22T04:08:33.497Z,13.30
2019-04-22T04:11:39.011Z,12.93
2019-04-22T04:23:08.458Z,14.70
2019-04-22T04:25:42.549Z,14.03
2019-04-22T04:31:25.285Z,14.00
2019-04-22T04:34:22.004Z,13.60
2019-04-22T04:37:08.985Z,13.90
2019-04-22T04:40:08.017Z,14.53
2019-04-22T04:45:40.507Z,14.33
2019-04-22T04:48:21.198Z,14.23
2019-04-22T04:54:12.926Z,13.83
2019-04-22T04:56:52.805Z,13.50
2019-04-22T05:00:09.877Z,13.63
2019-04-22T05:08:15.106Z,13.00
2019-04-22T05:11:10.942Z,13.73
2019-04-22T05:13:57.843Z,14.63
2019-04-22T05:19:29.513Z,12.80
2019-04-22T05:22:23.171Z,13.40
2019-04-22T05:27:45.309Z,13.00
2019-04-22T05:30:32.647Z,13.03
2019-04-22T05:33:33.044Z,13.40
2019-04-22T05:36:14.281Z,12.13
2019-04-22T05:39:06.088Z,12.60
2019-04-22T05:41:56.083Z,11.90
2019-04-22T05:44:49.641Z,13.20
2019-04-22T05:47:31.993Z,12.83
2019-04-22T05:50:24.550Z,12.70
2019-04-22T05:53:07.213Z,12.63
2019-04-22T05:56:04.212Z,12.10
2019-04-22T05:58:58.618Z,11.30
2019-04-22T06:01:54.962Z,13.10
2019-04-22T06:04:39.944Z,11.60
2019-04-22T06:07:26.395Z,11.63
2019-04-22T06:10:17.605Z,11.43
2019-04-22T06:13:04.382Z,11.87
2019-04-22T06:15:56.948Z,11.33
2019-04-22T06:18:56.895Z,11.70
2019-04-22T06:21:44.769Z,11.77
2019-04-22T06:24:32.454Z,12.20
2019-04-22T06:30:15.659Z,11.80
2019-04-22T06:33:12.944Z,10.73
2019-04-22T06:35:56.443Z,11.10
2019-04-22T06:38:59.168Z,10.90
2019-04-22T06:41:39.097Z,10.70
2019-04-22T06:44:33.926Z,11.07
2019-04-22T06:47:38.534Z,10.57
2019-04-22T06:50:09.190Z,10.03
2019-04-22T06:52:45.200Z,10.50
2019-04-22T06:55:41.423Z,10.60
2019-04-22T06:58:20.880Z,11.10
2019-04-22T07:01:31.828Z,10.63
2019-04-22T07:04:03.088Z,10.80
2019-04-22T07:09:48.592Z,10.70
2019-04-22T07:15:12.486Z,9.70
2019-04-22T07:18:04.081Z,10.13
2019-04-22T07:20:51.137Z,10.43
2019-04-22T07:26:29.775Z,10.53
2019-04-22T07:29:38.976Z,10.03
2019-04-22T07:32:15.138Z,10.27
2019-04-22T07:35:08.580Z,10.33
2019-04-22T07:37:54.934Z,11.30
2019-04-22T07:43:53.803Z,10.43
2019-04-22T07:46:18.775Z,10.03
2019-04-22T07:49:10.782Z,11.60
2019-04-22T07:52:04.808Z,10.80
2019-04-22T07:54:52.624Z,10.10
2019-04-22T07:57:50.733Z,10.70
2019-04-22T08:00:29.109Z,9.73
2019-04-22T08:03:39.355Z,9.57
2019-04-22T08:06:07.375Z,10.90
2019-04-22T08:08:55.195Z,11.13
2019-04-22T08:14:36.045Z,9.97
2019-04-22T08:17:50.839Z,10.10
2019-04-22T08:20:09.268Z,9.63
2019-04-22T08:23:02.911Z,9.70
2019-04-22T08:25:44.197Z,9.37
2019-04-22T08:28:42.777Z,9.23
2019-04-22T08:31:28.316Z,9.40
2019-04-22T08:37:37.398Z,9.57
2019-04-22T08:40:01.919Z,8.83
2019-04-22T08:45:44.434Z,8.80
2019-04-22T08:48:33.071Z,9.47
2019-04-22T08:54:28.295Z,9.30
2019-04-22T08:57:01.654Z,7.87
2019-04-22T08:59:59.560Z,8.70
2019-04-22T09:02:46.735Z,8.20
2019-04-22T09:05:51.796Z,8.10
2019-04-22T09:08:26.314Z,8.20
2019-04-22T09:11:24.685Z,7.33
2019-04-22T09:14:11.640Z,6.93
2019-04-22T09:17:02.279Z,7.70
2019-04-22T09:19:47.828Z,8.07
2019-04-22T09:22:36.335Z,9.10
2019-04-22T09:25:29.869Z,7.27
2019-04-22T09:28:24.703Z,7.03
2019-04-22T09:31:11.619Z,7.33
2019-04-22T09:33:59.327Z,6.90
2019-04-22T09:36:58.197Z,7.60
2019-04-22T09:39:41.482Z,7.60
2019-04-22T09:42:39.834Z,6.57
2019-04-22T09:45:21.387Z,7.20
2019-04-22T09:48:16.630Z,8.63
2019-04-22T09:50:47.692Z,8.20
2019-04-22T09:56:31.861Z,8.17
2019-04-22T09:59:20.219Z,7.83
2019-04-22T10:05:05.643Z,8.30
2019-04-22T10:07:58.000Z,7.30
2019-04-22T10:10:26.825Z,6.70
2019-04-22T10:13:06.401Z,7.03
2019-04-22T10:15:40.537Z,9.00
2019-04-22T10:18:19.310Z,7.70
2019-04-22T10:21:00.760Z,8.00
2019-04-22T10:23:40.571Z,7.20
2019-04-22T10:26:22.113Z,7.73
2019-04-22T10:29:09.065Z,7.10
2019-04-22T10:34:28.883Z,6.90
2019-04-22T10:37:11.750Z,7.70
2019-04-22T10:40:02.405Z,6.80
2019-04-22T10:42:49.328Z,7.93
2019-04-22T10:45:39.796Z,7.77
2019-04-22T10:48:30.180Z,7.03
2019-04-22T10:51:19.017Z,7.17
2019-04-22T10:54:09.595Z,7.43
2019-04-22T10:56:59.221Z,6.80
2019-04-22T10:59:48.531Z,7.30
2019-04-22T11:02:39.357Z,6.80
2019-04-22T11:05:28.664Z,6.53
2019-04-22T11:08:27.185Z,7.03
2019-04-22T11:11:21.532Z,6.90
2019-04-22T11:14:00.104Z,6.00
2019-04-22T11:16:49.761Z,6.80
2019-04-22T11:19:39.508Z,6.20
2019-04-22T11:22:33.195Z,7.00
2019-04-22T11:25:19.199Z,6.43
2019-04-22T11:28:09.644Z,6.60
2019-04-22T11:30:59.006Z,7.07
2019-04-22T11:33:48.308Z,6.53
2019-04-22T11:36:38.913Z,5.80
2019-04-22T11:39:32.224Z,6.47
2019-04-22T11:42:20.435Z,6.07
2019-04-22T11:45:11.058Z,6.20
2019-04-22T11:48:01.517Z,5.73
2019-04-22T11:50:51.561Z,6.43
2019-04-22T11:53:40.933Z,7.00
2019-04-22T11:56:30.991Z,6.60
2019-04-22T11:59:02.696Z,6.30
2019-04-22T12:01:52.916Z,6.50
2019-04-22T12:04:43.522Z,7.07
2019-04-22T12:07:35.278Z,6.10
2019-04-22T12:10:33.296Z,6.07
2019-04-22T12:13:15.673Z,5.70
2019-04-22T12:16:05.333Z,6.27
2019-04-22T12:18:55.491Z,6.17
2019-04-22T12:21:45.025Z,6.23
2019-04-22T12:24:36.401Z,6.30
2019-04-22T12:27:28.007Z,5.87
2019-04-22T12:30:19.474Z,6.70
2019-04-22T12:33:11.052Z,6.30
2019-04-22T12:36:00.266Z,5.93
2019-04-22T12:38:51.336Z,5.63
2019-04-22T12:41:42.234Z,5.33
2019-04-22T12:44:32.741Z,5.97
2019-04-22T12:47:22.190Z,5.20
2019-04-22T12:50:19.707Z,6.00
2019-04-22T12:53:07.301Z,5.80
2019-04-22T12:55:55.225Z,5.40
2019-04-22T12:58:41.205Z,5.00
2019-04-22T13:01:30.827Z,5.43
2019-04-22T13:04:23.148Z,5.87
2019-04-22T13:07:11.546Z,5.40
2019-04-22T13:10:01.492Z,5.77
2019-04-22T13:12:50.976Z,5.40
2019-04-22T13:15:41.273Z,5.50
2019-04-22T13:18:39.484Z,5.57
2019-04-22T13:21:22.768Z,6.00
2019-04-22T13:23:54.794Z,5.63
2019-04-22T13:26:45.259Z,5.27
2019-04-22T13:29:34.952Z,5.53
2019-04-22T13:32:13.843Z,5.60
2019-04-22T13:35:03.977Z,5.23
2019-04-22T13:37:54.952Z,4.90
2019-04-22T13:40:57.886Z,5.63
2019-04-22T13:43:34.892Z,6.17
2019-04-22T13:46:24.126Z,5.80
2019-04-22T13:49:43.346Z,4.60
2019-04-22T13:54:12.659Z,5.17
2019-04-22T13:55:41.890Z,5.00
2019-04-22T13:57:58.385Z,4.87
2019-04-22T14:00:36.400Z,5.23
2019-04-22T14:03:44.703Z,4.40
2019-04-22T14:06:16.449Z,5.20
2019-04-22T14:09:09.525Z,4.83
2019-04-22T14:12:03.938Z,5.50
2019-04-22T14:14:30.412Z,5.40
2019-04-22T14:17:20.841Z,4.73
2019-04-22T14:20:10.912Z,4.40
2019-04-22T14:22:41.249Z,4.63
2019-04-22T14:25:30.625Z,5.30
2019-04-22T14:28:22.986Z,5.43
2019-04-22T14:31:10.717Z,5.30
2019-04-22T14:34:04.967Z,5.00
2019-04-22T14:36:51.139Z,4.50
2019-04-22T14:39:41.868Z,4.53
2019-04-22T14:42:52.150Z,5.03
2019-04-22T14:45:59.864Z,4.07
2019-04-22T14:48:43.002Z,4.50
2019-04-22T14:51:22.265Z,5.00
2019-04-22T14:54:09.681Z,4.23
2019-04-22T14:56:44.784Z,5.00
2019-04-22T14:59:35.798Z,4.90
2019-04-22T15:02:25.597Z,4.97
2019-04-22T15:05:16.395Z,4.77
2019-04-22T15:08:05.106Z,4.73
2019-04-22T15:10:54.029Z,4.67
2019-04-22T15:13:43.432Z,4.80
2019-04-22T15:17:04.760Z,4.27
2019-04-22T15:19:58.882Z,4.83
2019-04-22T15:22:48.508Z,4.70
2019-04-22T15:25:38.621Z,4.53
2019-04-22T15:28:27.404Z,4.80
2019-04-22T15:31:17.478Z,4.60
2019-04-22T15:34:06.883Z,5.10
2019-04-22T15:36:58.038Z,4.93
2019-04-22T15:39:47.898Z,4.40
2019-04-22T15:42:40.202Z,4.50
2019-04-22T15:45:28.741Z,3.90
2019-04-22T15:48:18.809Z,4.70
2019-04-22T15:51:08.728Z,4.80
2019-04-22T15:53:58.081Z,4.07
2019-04-22T15:56:48.739Z,4.60
2019-04-22T15:59:54.073Z,5.20
2019-04-22T16:02:29.801Z,4.43
2019-04-22T16:05:20.284Z,4.60
2019-04-22T16:08:10.705Z,4.57
2019-04-22T16:11:00.033Z,4.90
2019-04-22T16:13:50.555Z,4.97
2019-04-22T16:16:40.667Z,4.30
2019-04-22T16:19:30.951Z,4.50
2019-04-22T16:22:23.100Z,4.57
2019-04-22T16:25:27.094Z,3.93
2019-04-22T16:28:17.291Z,4.27
2019-04-22T16:31:09.079Z,3.73
2019-04-22T16:33:58.741Z,4.10
2019-04-22T16:36:49.082Z,4.07
2019-04-22T16:39:38.895Z,3.90
2019-04-22T16:42:18.382Z,4.50
2019-04-22T16:45:02.095Z,4.30
2019-04-22T16:47:51.445Z,4.20
2019-04-22T16:50:42.819Z,4.03
2019-04-22T16:53:31.469Z,4.10
2019-04-22T16:56:20.769Z,3.83
2019-04-22T16:59:10.873Z,4.10
2019-04-22T17:02:26.472Z,3.93
2019-04-22T17:05:35.832Z,4.20
2019-04-22T17:08:26.585Z,3.70
2019-04-22T17:11:16.208Z,3.93
2019-04-22T17:14:01.461Z,3.63
2019-04-22T17:16:50.664Z,3.70
2019-04-22T17:19:39.750Z,3.93
2019-04-22T17:22:29.522Z,3.70
2019-04-22T17:25:18.736Z,3.70
2019-04-22T17:28:07.815Z,3.93
2019-04-22T17:30:57.678Z,4.30
2019-04-22T17:33:46.826Z,4.03
2019-04-22T17:36:36.473Z,4.17
2019-04-22T17:39:35.698Z,3.80
2019-04-22T17:42:29.684Z,3.87
2019-04-22T17:45:30.231Z,4.00
2019-04-22T17:48:38.353Z,3.80
2019-04-22T17:51:31.482Z,4.00
2019-04-22T17:54:17.118Z,3.90
2019-04-22T17:56:49.684Z,3.90
2019-04-22T17:59:38.101Z,3.70
2019-04-22T18:02:25.122Z,3.70
2019-04-22T18:05:03.538Z,3.60
2019-04-22T18:08:15.445Z,3.83
2019-04-22T18:10:59.830Z,3.70
2019-04-22T18:13:51.855Z,4.50
2019-04-22T18:16:41.359Z,3.90
2019-04-22T18:19:31.710Z,4.47
2019-04-22T18:22:20.340Z,3.80
2019-04-22T18:25:10.699Z,3.63
2019-04-22T18:28:14.533Z,3.27
2019-04-22T18:30:50.142Z,4.23
2019-04-22T18:33:43.264Z,3.90
2019-04-22T18:36:33.232Z,3.90
2019-04-22T18:39:38.329Z,3.90
2019-04-22T18:42:17.858Z,4.20
2019-04-22T18:45:29.558Z,3.80
2019-04-22T18:47:54.609Z,3.93
2019-04-22T18:51:09.967Z,3.60
2019-04-22T18:54:18.541Z,3.47
2019-04-22T18:57:08.362Z,4.23
2019-04-22T18:59:44.875Z,4.40
2019-04-22T19:02:35.104Z,3.80
2019-04-22T19:05:43.861Z,3.50
2019-04-22T19:08:33.252Z,4.30
2019-04-22T19:22:09.703Z,4.60
2019-04-22T19:25:02.694Z,4.30
2019-04-22T19:27:55.145Z,4.00
2019-04-22T19:30:48.204Z,4.70
2019-04-22T19:33:36.682Z,4.40
2019-04-22T19:36:27.093Z,4.50
2019-04-22T19:39:11.785Z,4.60
2019-04-22T19:42:20.571Z,4.23
2019-04-22T19:44:47.052Z,4.30
2019-04-22T19:50:29.514Z,4.60
2019-04-22T19:53:10.639Z,4.60
2019-04-22T19:55:49.698Z,4.00
2019-04-22T19:58:41.469Z,3.70
2019-04-22T20:01:40.181Z,5.73
2019-04-22T20:04:46.262Z,4.17
2019-04-22T20:07:38.434Z,4.77
2019-04-22T20:10:34.898Z,4.50
2019-04-22T20:13:24.607Z,4.70
2019-04-22T20:15:58.380Z,4.63
2019-04-22T20:19:04.691Z,4.40
2019-04-22T20:21:38.691Z,4.70
2019-04-22T20:24:12.056Z,4.43
2019-04-22T20:30:09.901Z,4.13
2019-04-22T20:32:51.406Z,4.33
2019-04-22T20:35:43.558Z,4.77
2019-04-22T20:38:37.050Z,4.13
2019-04-22T20:41:18.953Z,4.30
2019-04-22T20:44:22.474Z,4.37
2019-04-22T20:47:05.890Z,3.50
2019-04-22T20:50:04.458Z,3.70
2019-04-22T20:52:59.809Z,4.10
2019-04-22T20:55:42.214Z,4.00
2019-04-22T20:58:32.754Z,3.80
2019-04-22T21:01:22.357Z,4.27
2019-04-22T21:03:57.670Z,3.90
2019-04-22T21:07:00.927Z,3.77
2019-04-22T21:09:52.410Z,4.27
2019-04-22T21:12:36.229Z,3.77
2019-04-22T21:15:36.865Z,4.20
2019-04-22T21:18:25.382Z,4.43
2019-04-22T21:21:20.293Z,3.90
2019-04-22T21:24:03.146Z,3.80
2019-04-22T21:26:58.463Z,4.07
2019-04-22T21:29:43.338Z,3.83
2019-04-22T21:32:38.841Z,4.10
2019-04-22T21:35:47.175Z,4.37
2019-04-22T21:38:30.689Z,4.57
2019-04-22T21:41:10.118Z,4.40
2019-04-22T21:44:04.115Z,4.07
2019-04-22T21:47:03.038Z,4.47
2019-04-22T21:49:51.446Z,3.70
2019-04-22T21:52:35.859Z,3.70
2019-04-22T21:55:36.049Z,4.07
2019-04-22T21:58:27.945Z,4.00
2019-04-22T22:01:32.330Z,4.00
2019-04-22T22:04:15.231Z,4.37
2019-04-22T22:06:54.830Z,3.93
2019-04-22T22:09:54.272Z,3.97
2019-04-22T22:12:48.845Z,4.00
2019-04-22T22:15:36.853Z,3.80
2019-04-22T22:18:19.587Z,5.30
2019-04-22T22:21:37.739Z,4.47
2019-04-22T22:24:08.980Z,3.87
2019-04-22T22:26:57.092Z,4.17
2019-04-22T22:29:57.050Z,3.50
2019-04-22T22:32:42.282Z,4.07
2019-04-22T22:35:30.632Z,3.70
2019-04-22T22:38:19.172Z,3.90
2019-04-22T22:40:50.057Z,3.60
2019-04-22T22:43:43.619Z,3.70
2019-04-22T22:46:43.136Z,3.60
2019-04-22T22:49:44.787Z,3.60
2019-04-22T22:55:21.696Z,3.87
2019-04-22T22:58:19.158Z,3.80
2019-04-22T23:01:02.155Z,3.50
2019-04-22T23:03:57.095Z,3.40
2019-04-22T23:06:50.340Z,3.50
2019-04-22T23:09:36.609Z,3.50
2019-04-22T23:12:39.275Z,3.60
2019-04-22T23:15:15.306Z,3.63
2019-04-22T23:17:45.698Z,3.37
2019-04-22T23:20:39.994Z,4.00
2019-04-22T23:23:49.380Z,3.70
2019-04-22T23:26:35.767Z,3.47
2019-04-22T23:29:46.344Z,4.20
2019-04-22T23:32:37.720Z,3.50
2019-04-22T23:35:49.306Z,3.77
2019-04-22T23:38:54.842Z,3.23
2019-04-22T23:44:27.548Z,3.90
2019-04-22T23:47:18.790Z,4.07
2019-04-22T23:50:21.609Z,4.00
2019-04-22T23:53:45.103Z,3.97
2019-04-22T23:56:13.543Z,3.50
2019-04-22T23:59:14.925Z,3.57
